createdAt,value
2023-01-08T00:02:52.859Z,4.77
2023-01-08T00:06:07.456Z,4.83
2023-01-08T00:09:17.075Z,4.80
2023-01-08T00:12:26.058Z,4.13
2023-01-08T00:15:35.648Z,4.10
2023-01-08T00:18:44.282Z,4.53
2023-01-08T00:21:56.482Z,4.40
2023-01-08T00:25:05.424Z,4.93
2023-01-08T00:28:15.138Z,4.50
2023-01-08T00:31:25.366Z,4.00
2023-01-08T00:34:33.807Z,4.47
2023-01-08T00:37:44.625Z,4.20
2023-01-08T00:40:53.001Z,4.23
2023-01-08T00:44:01.355Z,3.97
2023-01-08T00:47:10.844Z,3.57
2023-01-08T00:50:19.331Z,3.60
2023-01-08T00:53:29.186Z,3.50
2023-01-08T00:56:37.542Z,2.80
2023-01-08T00:59:46.136Z,3.00
2023-01-08T01:02:57.402Z,2.57
2023-01-08T01:06:07.408Z,2.73
2023-01-08T01:09:17.163Z,2.40
2023-01-08T01:12:25.538Z,2.43
2023-01-08T01:15:33.904Z,2.43
2023-01-08T01:18:42.406Z,2.57
2023-01-08T01:21:50.837Z,2.67
2023-01-08T01:25:01.144Z,3.00
2023-01-08T01:28:11.024Z,2.90
2023-01-08T01:31:20.630Z,2.47
2023-01-08T01:34:29.017Z,2.40
2023-01-08T01:37:39.700Z,2.63
2023-01-08T01:40:50.053Z,2.40
2023-01-08T01:44:00.159Z,2.13
2023-01-08T01:47:17.080Z,2.40
2023-01-08T01:50:30.689Z,2.70
2023-01-08T01:53:41.549Z,2.20
2023-01-08T01:56:51.658Z,2.13
2023-01-08T02:00:01.680Z,2.27
2023-01-08T02:03:23.673Z,2.63
2023-01-08T02:06:39.707Z,3.07
2023-01-08T02:09:53.145Z,2.10
2023-01-08T02:13:09.352Z,2.10
2023-01-08T02:16:21.539Z,2.20
2023-01-08T02:19:40.189Z,2.30
2023-01-08T02:23:03.752Z,2.60
2023-01-08T02:26:24.816Z,2.30
2023-01-08T02:29:34.838Z,2.53
2023-01-08T02:32:45.259Z,2.33
2023-01-08T02:36:12.073Z,2.30
2023-01-08T02:39:51.391Z,2.20
2023-01-08T02:43:07.710Z,2.40
2023-01-08T02:46:20.381Z,2.20
2023-01-08T02:49:31.947Z,2.37
2023-01-08T02:52:48.216Z,2.50
2023-01-08T02:55:59.923Z,2.77
2023-01-08T02:59:14.173Z,2.60
2023-01-08T03:02:22.980Z,2.10
2023-01-08T03:05:32.360Z,2.47
2023-01-08T03:08:43.890Z,2.60
2023-01-08T03:11:58.884Z,2.50
2023-01-08T03:15:14.047Z,2.50
2023-01-08T03:18:34.126Z,3.13
2023-01-08T03:21:45.778Z,2.43
2023-01-08T03:24:55.620Z,2.80
2023-01-08T03:28:06.970Z,2.63
2023-01-08T03:31:18.668Z,2.40
2023-01-08T03:34:29.243Z,2.43
2023-01-08T03:37:42.129Z,3.00
2023-01-08T03:40:54.483Z,2.30
2023-01-08T03:44:02.907Z,2.60
2023-01-08T03:47:13.316Z,2.60
2023-01-08T03:50:26.474Z,2.40
2023-01-08T03:53:34.835Z,2.83
2023-01-08T03:56:43.374Z,2.40
2023-01-08T03:59:51.774Z,2.50
2023-01-08T04:03:02.380Z,2.43
2023-01-08T04:06:11.603Z,2.60
2023-01-08T04:09:21.214Z,2.60
2023-01-08T04:12:29.562Z,2.30
2023-01-08T04:15:38.187Z,2.50
2023-01-08T04:18:47.935Z,2.40
2023-01-08T04:21:56.360Z,2.67
2023-01-08T04:25:05.332Z,2.40
2023-01-08T04:28:14.022Z,2.37
2023-01-08T04:31:22.750Z,2.57
2023-01-08T04:34:32.549Z,2.43
2023-01-08T04:37:40.931Z,2.40
2023-01-08T04:40:49.867Z,2.47
2023-01-08T04:43:59.204Z,2.90
2023-01-08T04:47:07.670Z,2.50
2023-01-08T04:50:17.682Z,3.03
2023-01-08T04:53:26.093Z,2.87
2023-01-08T04:56:36.479Z,2.70
2023-01-08T04:59:45.032Z,2.63
2023-01-08T05:02:53.952Z,2.50
2023-01-08T05:06:03.995Z,2.73
2023-01-08T05:09:12.953Z,2.53
2023-01-08T05:12:21.528Z,2.80
2023-01-08T05:15:30.353Z,2.83
2023-01-08T05:18:38.770Z,2.80
2023-01-08T05:21:48.532Z,3.07
2023-01-08T05:24:56.907Z,3.10
2023-01-08T05:28:05.730Z,2.60
2023-01-08T05:31:14.867Z,2.73
2023-01-08T05:34:23.327Z,2.77
2023-01-08T05:37:35.209Z,2.63
2023-01-08T05:40:43.598Z,2.60
2023-01-08T05:43:51.946Z,3.13
2023-01-08T05:47:00.325Z,2.90
2023-01-08T05:50:09.387Z,2.70
2023-01-08T05:53:19.363Z,2.80
2023-01-08T05:56:27.729Z,2.50
2023-01-08T05:59:36.131Z,2.60
2023-01-08T06:02:48.169Z,2.60
2023-01-08T06:06:00.735Z,2.67
2023-01-08T06:09:10.731Z,2.87
2023-01-08T06:12:19.130Z,2.57
2023-01-08T06:15:27.458Z,3.53
2023-01-08T06:18:37.518Z,2.67
2023-01-08T06:21:46.175Z,3.00
2023-01-08T06:24:56.955Z,2.80
2023-01-08T06:28:05.704Z,2.73
2023-01-08T06:31:14.228Z,3.33
2023-01-08T06:34:22.653Z,2.83
2023-01-08T06:37:31.011Z,2.90
2023-01-08T06:40:40.854Z,3.20
2023-01-08T06:43:49.266Z,3.13
2023-01-08T06:46:57.634Z,2.77
2023-01-08T06:50:07.138Z,2.77
2023-01-08T06:53:15.456Z,2.60
2023-01-08T06:56:25.170Z,2.70
2023-01-08T06:59:33.512Z,2.67
2023-01-08T07:02:42.044Z,3.43
2023-01-08T07:05:50.962Z,3.03
2023-01-08T07:08:59.315Z,3.33
2023-01-08T07:12:13.712Z,3.03
2023-01-08T07:15:22.347Z,3.00
2023-01-08T07:18:30.714Z,2.93
2023-01-08T07:21:39.087Z,3.47
2023-01-08T07:24:47.628Z,3.20
2023-01-08T07:27:57.687Z,2.70
2023-01-08T07:31:07.337Z,2.90
2023-01-08T07:34:15.773Z,3.20
2023-01-08T07:37:24.135Z,2.90
2023-01-08T07:40:32.939Z,2.90
2023-01-08T07:43:42.782Z,3.40
2023-01-08T07:46:51.241Z,3.37
2023-01-08T07:49:59.708Z,2.80
2023-01-08T07:53:08.151Z,3.33
2023-01-08T07:56:17.019Z,3.47
2023-01-08T07:59:26.749Z,3.13
2023-01-08T08:02:35.243Z,3.53
2023-01-08T08:05:43.702Z,3.50
2023-01-08T08:08:52.061Z,3.30
2023-01-08T08:12:00.631Z,3.60
2023-01-08T08:15:12.094Z,3.03
2023-01-08T08:18:21.115Z,3.10
2023-01-08T08:21:30.659Z,3.33
2023-01-08T08:24:39.038Z,3.50
2023-01-08T08:27:47.431Z,3.73
2023-01-08T08:30:58.551Z,3.70
2023-01-08T08:34:08.022Z,3.20
2023-01-08T08:37:16.387Z,3.60
2023-01-08T08:40:25.531Z,3.37
2023-01-08T08:43:33.889Z,3.17
2023-01-08T08:46:43.635Z,3.20
2023-01-08T08:49:52.036Z,3.30
2023-01-08T08:53:01.531Z,3.63
2023-01-08T08:56:10.587Z,3.40
2023-01-08T08:59:23.741Z,3.63
2023-01-08T09:02:33.893Z,3.20
2023-01-08T09:05:43.140Z,3.30
2023-01-08T09:08:51.990Z,3.20
2023-01-08T09:12:00.916Z,3.50
2023-01-08T09:15:11.308Z,3.30
2023-01-08T09:18:21.108Z,3.10
2023-01-08T09:21:29.478Z,3.00
2023-01-08T09:24:37.957Z,2.87
2023-01-08T09:27:46.797Z,2.83
2023-01-08T09:30:55.524Z,2.93
2023-01-08T09:34:05.269Z,3.17
2023-01-08T09:37:13.640Z,3.77
2023-01-08T09:40:23.277Z,3.53
2023-01-08T09:43:35.228Z,3.30
2023-01-08T09:46:44.065Z,3.10
2023-01-08T09:49:56.082Z,3.10
2023-01-08T09:53:04.544Z,2.87
2023-01-08T09:56:18.994Z,3.03
2023-01-08T09:59:27.684Z,3.30
2023-01-08T10:02:37.145Z,3.13
2023-01-08T10:05:47.354Z,3.43
2023-01-08T10:08:55.995Z,3.50
2023-01-08T10:12:06.671Z,3.30
2023-01-08T10:15:18.314Z,3.40
2023-01-08T10:18:29.194Z,3.40
2023-01-08T10:21:41.875Z,3.60
2023-01-08T10:24:53.028Z,3.20
2023-01-08T10:28:03.116Z,3.63
2023-01-08T10:31:19.733Z,3.60
2023-01-08T10:34:33.710Z,3.23
2023-01-08T10:37:47.126Z,3.60
2023-01-08T10:40:56.601Z,3.20
2023-01-08T10:44:09.991Z,3.83
2023-01-08T10:47:22.592Z,3.20
2023-01-08T10:50:33.779Z,3.13
2023-01-08T10:53:44.165Z,3.87
2023-01-08T10:56:52.816Z,3.27
2023-01-08T11:00:04.810Z,3.43
2023-01-08T11:03:32.751Z,3.60
2023-01-08T11:06:48.547Z,3.17
2023-01-08T11:09:58.647Z,3.73
2023-01-08T11:13:09.115Z,3.53
2023-01-08T11:16:20.028Z,3.67
2023-01-08T11:19:33.077Z,3.30
2023-01-08T11:22:41.527Z,3.57
2023-01-08T11:25:57.340Z,3.73
2023-01-08T11:29:14.070Z,3.87
2023-01-08T11:32:36.724Z,3.90
2023-01-08T11:35:49.928Z,3.97
2023-01-08T11:38:58.247Z,3.70
2023-01-08T11:42:27.451Z,3.40
2023-01-08T11:45:44.856Z,3.53
2023-01-08T11:49:16.320Z,3.40
2023-01-08T11:52:41.365Z,3.40
2023-01-08T11:56:07.937Z,3.40
2023-01-08T11:59:25.926Z,3.47
2023-01-08T12:02:50.627Z,3.70
2023-01-08T12:06:13.534Z,3.30
2023-01-08T12:09:38.057Z,3.20
2023-01-08T12:12:57.951Z,3.83
2023-01-08T12:16:20.308Z,3.53
2023-01-08T12:19:45.494Z,3.60
2023-01-08T12:23:01.307Z,3.80
2023-01-08T12:26:20.177Z,3.70
2023-01-08T12:29:52.592Z,3.50
2023-01-08T12:33:06.754Z,3.77
2023-01-08T12:36:20.085Z,3.07
2023-01-08T12:39:36.549Z,3.63
2023-01-08T12:42:53.383Z,3.77
2023-01-08T12:46:06.923Z,3.37
2023-01-08T12:49:26.083Z,3.10
2023-01-08T12:52:40.262Z,3.47
2023-01-08T12:56:01.378Z,3.20
2023-01-08T12:59:30.464Z,4.00
2023-01-08T13:02:46.040Z,3.70
2023-01-08T13:06:09.023Z,3.43
2023-01-08T13:09:24.747Z,3.33
2023-01-08T13:12:37.379Z,3.23
2023-01-08T13:15:46.084Z,3.40
2023-01-08T13:18:56.292Z,2.93
2023-01-08T13:22:06.164Z,3.30
2023-01-08T13:25:33.269Z,3.60
2023-01-08T13:28:45.123Z,3.60
2023-01-08T13:31:54.090Z,3.10
2023-01-08T13:35:13.944Z,3.20
2023-01-08T13:38:23.744Z,3.70
2023-01-08T13:41:33.912Z,3.23
2023-01-08T13:44:48.461Z,2.93
2023-01-08T13:47:57.247Z,3.27
2023-01-08T13:51:06.166Z,3.43
2023-01-08T13:54:29.430Z,3.23
2023-01-08T13:57:41.630Z,3.13
2023-01-08T14:00:52.859Z,3.30
2023-01-08T14:04:01.335Z,3.20
2023-01-08T14:07:15.007Z,3.30
2023-01-08T14:10:26.503Z,3.20
2023-01-08T14:13:35.795Z,3.00
2023-01-08T14:16:44.834Z,3.47
2023-01-08T14:19:53.239Z,3.37
2023-01-08T14:23:02.638Z,2.90
2023-01-08T14:26:24.574Z,3.10
2023-01-08T14:29:35.675Z,3.20
2023-01-08T14:32:50.305Z,2.97
2023-01-08T14:35:59.354Z,2.60
2023-01-08T14:39:12.991Z,3.17
2023-01-08T14:42:44.445Z,3.20
2023-01-08T14:45:55.098Z,2.83
2023-01-08T14:49:03.635Z,3.77
2023-01-08T14:52:18.344Z,3.20
2023-01-08T14:55:28.471Z,3.40
2023-01-08T14:58:41.670Z,3.13
2023-01-08T15:01:54.553Z,3.40
2023-01-08T15:05:04.616Z,3.53
2023-01-08T15:08:26.012Z,3.50
2023-01-08T15:11:54.399Z,3.20
2023-01-08T15:15:25.512Z,3.50
2023-01-08T15:18:38.542Z,3.53
2023-01-08T15:21:48.567Z,3.27
2023-01-08T15:24:59.812Z,3.27
2023-01-08T15:28:14.765Z,3.27
2023-01-08T15:31:30.282Z,3.07
2023-01-08T15:34:39.108Z,3.90
2023-01-08T15:37:49.911Z,3.37
2023-01-08T15:40:58.523Z,3.30
2023-01-08T15:44:06.523Z,3.57
2023-01-08T15:47:16.395Z,3.40
2023-01-08T15:50:25.914Z,3.33
2023-01-08T15:53:34.690Z,3.43
2023-01-08T15:56:43.244Z,3.93
2023-01-08T15:59:51.832Z,3.63
2023-01-08T16:03:01.574Z,3.30
2023-01-08T16:06:11.105Z,3.40
2023-01-08T16:09:19.550Z,3.90
2023-01-08T16:12:27.937Z,3.97
2023-01-08T16:15:36.344Z,3.80
2023-01-08T16:18:46.174Z,3.83
2023-01-08T16:21:54.535Z,3.60
2023-01-08T16:25:04.332Z,3.50
2023-01-08T16:28:13.252Z,3.60
2023-01-08T16:31:21.777Z,3.30
2023-01-08T16:34:31.576Z,3.33
2023-01-08T16:37:41.073Z,3.70
2023-01-08T16:40:49.699Z,3.30
2023-01-08T16:43:58.102Z,3.47
2023-01-08T16:47:06.609Z,3.10
2023-01-08T16:50:16.614Z,3.10
2023-01-08T16:53:25.070Z,3.03
2023-01-08T16:56:33.482Z,2.83
2023-01-08T16:59:42.209Z,3.20
2023-01-08T17:02:50.660Z,2.83
2023-01-08T17:06:05.096Z,2.93
2023-01-08T17:09:13.671Z,3.30
2023-01-08T17:12:23.406Z,2.90
2023-01-08T17:15:31.809Z,3.47
2023-01-08T17:18:40.670Z,3.23
2023-01-08T17:21:52.157Z,3.00
2023-01-08T17:25:00.613Z,2.60
2023-01-08T17:28:11.104Z,2.97
2023-01-08T17:31:20.925Z,3.37
2023-01-08T17:34:29.399Z,2.80
2023-01-08T17:37:39.202Z,3.30
2023-01-08T17:40:47.663Z,2.97
2023-01-08T17:43:56.010Z,3.20
2023-01-08T17:47:04.400Z,3.23
2023-01-08T17:50:14.180Z,2.80
2023-01-08T17:53:24.009Z,2.87
2023-01-08T17:56:32.460Z,2.53
2023-01-08T17:59:40.959Z,2.70
2023-01-08T18:02:49.443Z,3.20
2023-01-08T18:05:57.866Z,2.80
2023-01-08T18:09:09.654Z,2.73
2023-01-08T18:12:20.185Z,3.00
2023-01-08T18:15:30.244Z,3.70
2023-01-08T18:18:40.172Z,3.17
2023-01-08T18:21:49.142Z,2.90
2023-01-08T18:25:07.831Z,3.37
2023-01-08T18:28:16.202Z,3.63
2023-01-08T18:31:26.197Z,3.77
2023-01-08T18:34:34.739Z,3.30
2023-01-08T18:37:43.227Z,3.20
2023-01-08T18:40:53.343Z,3.53
2023-01-08T18:44:02.058Z,3.70
2023-01-08T18:47:12.506Z,4.10
2023-01-08T18:50:20.991Z,3.50
2023-01-08T18:53:29.348Z,3.20
2023-01-08T18:56:39.643Z,3.00
2023-01-08T18:59:50.231Z,2.80
2023-01-08T19:02:58.639Z,3.00
2023-01-08T19:06:12.524Z,3.57
2023-01-08T19:09:21.411Z,3.43
2023-01-08T19:12:32.463Z,3.47
2023-01-08T19:15:40.944Z,3.63
2023-01-08T19:18:50.227Z,3.80
2023-01-08T19:21:58.581Z,3.70
2023-01-08T19:25:08.061Z,3.63
2023-01-08T19:28:17.854Z,3.80
2023-01-08T19:31:26.325Z,3.87
2023-01-08T19:34:34.788Z,4.17
2023-01-08T19:37:44.164Z,3.80
2023-01-08T19:40:52.610Z,4.20
2023-01-08T19:44:01.555Z,3.63
2023-01-08T19:47:10.686Z,3.57
2023-01-08T19:50:20.310Z,3.63
2023-01-08T19:53:28.862Z,3.80
2023-01-08T19:56:37.581Z,3.73
2023-01-08T19:59:47.492Z,4.00
2023-01-08T20:02:56.179Z,3.93
2023-01-08T20:06:07.565Z,3.83
2023-01-08T20:09:16.034Z,3.40
2023-01-08T20:12:24.524Z,3.43
2023-01-08T20:15:34.564Z,3.57
2023-01-08T20:18:43.859Z,3.50
2023-01-08T20:21:52.280Z,3.40
2023-01-08T20:25:00.715Z,3.30
2023-01-08T20:28:09.160Z,3.10
2023-01-08T20:31:20.448Z,3.30
2023-01-08T20:34:29.144Z,3.33
2023-01-08T20:37:37.528Z,3.20
2023-01-08T20:40:45.974Z,3.30
2023-01-08T20:43:56.082Z,2.97
2023-01-08T20:47:14.944Z,2.90
2023-01-08T20:51:05.531Z,2.73
2023-01-08T21:07:07.855Z,3.17
2023-01-08T21:10:16.502Z,3.60
2023-01-08T21:13:24.893Z,3.77
2023-01-08T21:16:35.373Z,4.00
2023-01-08T21:23:57.976Z,3.87
2023-01-08T21:27:06.450Z,4.37
2023-01-08T21:30:15.536Z,4.10
2023-01-08T21:33:24.984Z,4.23
2023-01-08T21:36:34.793Z,4.53
2023-01-08T21:39:43.223Z,4.70
2023-01-08T21:43:08.850Z,4.80
2023-01-08T21:46:17.988Z,4.83
2023-01-08T21:49:26.342Z,4.80
2023-01-08T21:52:53.401Z,5.20
2023-01-08T21:56:03.120Z,5.23
2023-01-08T21:59:11.549Z,5.27
2023-01-08T22:02:21.490Z,5.57
2023-01-08T22:05:29.867Z,5.60
2023-01-08T22:08:39.717Z,5.93
2023-01-08T22:11:48.097Z,6.20
2023-01-08T22:14:57.406Z,6.23
2023-01-08T22:18:05.819Z,6.93
2023-01-08T22:21:14.746Z,6.57
2023-01-08T22:24:24.545Z,6.93
2023-01-08T22:27:32.905Z,6.07
2023-01-08T22:30:41.862Z,6.87
2023-01-08T22:33:54.667Z,6.13
2023-01-08T22:37:03.400Z,6.60
2023-01-08T22:40:14.223Z,5.93
2023-01-08T22:43:22.603Z,5.97
2023-01-08T22:46:31.689Z,6.07
2023-01-08T22:49:40.049Z,6.03
2023-01-08T22:52:48.440Z,5.80
2023-01-08T22:55:58.296Z,6.20
2023-01-08T22:59:06.713Z,5.73
2023-01-08T23:02:19.177Z,5.80
2023-01-08T23:05:27.618Z,5.53
2023-01-08T23:08:35.955Z,5.70
2023-01-08T23:11:45.839Z,5.37
2023-01-08T23:14:54.372Z,6.00
2023-01-08T23:18:02.729Z,5.80
2023-01-08T23:21:12.594Z,5.97
2023-01-08T23:24:21.001Z,6.67
2023-01-08T23:27:32.683Z,5.80
2023-01-08T23:30:42.190Z,5.90
2023-01-08T23:33:51.148Z,6.70
2023-01-08T23:36:59.525Z,6.90
2023-01-08T23:40:08.990Z,7.33
2023-01-08T23:43:19.256Z,7.43
2023-01-08T23:46:28.109Z,7.87
2023-01-08T23:49:36.623Z,7.73
2023-01-08T23:52:44.982Z,7.23
2023-01-08T23:55:53.413Z,7.70
2023-01-08T23:59:03.276Z,7.90
